createdAt,value
2022-10-01T00:30:48.178Z,8.73
2022-10-01T00:33:53.778Z,5.60
2022-10-01T00:36:25.549Z,7.95
2022-10-01T00:39:07.689Z,8.15
2022-10-01T00:41:35.824Z,8.95
2022-10-01T00:56:01.636Z,7.55
2022-10-01T01:02:13.747Z,7.60
2022-10-01T01:05:28.060Z,8.60
2022-10-01T01:18:08.293Z,8.15
2022-10-01T01:21:05.619Z,9.30
2022-10-01T01:24:19.262Z,9.63
2022-10-01T01:27:15.799Z,9.18
2022-10-01T01:33:46.106Z,10.68
2022-10-01T01:36:40.318Z,9.40
2022-10-01T01:39:14.363Z,10.25
2022-10-01T01:45:27.295Z,6.05
2022-10-01T03:19:23.920Z,4.75
2022-10-01T03:24:13.468Z,7.53
2022-10-01T03:28:40.430Z,6.07
2022-10-01T04:06:52.948Z,4.97
2022-10-01T04:24:58.024Z,2.92
2022-10-01T04:31:37.932Z,3.15
2022-10-01T08:12:40.783Z,1.73
2022-10-01T08:19:08.881Z,2.97
2022-10-01T08:21:42.212Z,0.80
2022-10-01T08:24:13.124Z,1.48
2022-10-01T08:26:40.004Z,0.82
2022-10-01T08:29:06.752Z,3.67
2022-10-01T08:31:35.992Z,2.97
2022-10-01T08:34:03.186Z,1.48
2022-10-01T08:36:30.789Z,1.35
2022-10-01T08:38:57.605Z,1.05
2022-10-01T08:41:52.269Z,2.90
2022-10-01T08:44:28.846Z,3.20
2022-10-01T08:47:16.218Z,1.63
2022-10-01T08:49:59.463Z,1.25
2022-10-01T08:52:41.432Z,4.20
2022-10-01T08:55:50.813Z,1.50
2022-10-01T08:58:25.688Z,2.88
2022-10-01T09:00:52.781Z,3.30
2022-10-01T09:03:31.058Z,4.78
2022-10-01T09:06:18.884Z,3.83
2022-10-01T09:09:00.947Z,3.85
2022-10-01T09:11:42.338Z,4.72
2022-10-01T09:14:27.809Z,4.38
2022-10-01T09:17:13.009Z,5.13
2022-10-01T09:20:04.522Z,6.43
2022-10-01T09:22:39.647Z,4.68
2022-10-01T09:25:14.532Z,5.55
2022-10-01T09:27:48.350Z,4.28
2022-10-01T09:30:37.743Z,4.65
2022-10-01T09:33:17.353Z,5.30
2022-10-01T09:36:18.363Z,3.47
2022-10-01T09:39:34.406Z,4.03
2022-10-01T09:42:07.698Z,6.03
2022-10-01T09:44:34.803Z,3.10
2022-10-01T09:47:01.762Z,5.32
2022-10-01T09:49:46.490Z,1.85
2022-10-01T09:52:33.591Z,5.30
2022-10-01T09:55:03.633Z,5.32
2022-10-01T09:57:38.867Z,2.55
2022-10-01T10:00:12.034Z,3.22
2022-10-01T10:02:49.130Z,5.78
2022-10-01T10:05:17.923Z,5.05
2022-10-01T10:08:06.971Z,6.78
2022-10-01T10:10:37.065Z,4.35
2022-10-01T10:13:10.784Z,5.38
2022-10-01T10:15:50.007Z,4.65
2022-10-01T10:19:08.146Z,5.90
2022-10-01T10:21:39.326Z,7.13
2022-10-01T10:24:29.963Z,6.32
2022-10-01T10:30:23.787Z,7.20
2022-10-01T10:32:58.858Z,11.47
2022-10-01T10:35:26.373Z,5.10
2022-10-01T10:39:11.141Z,9.15
2022-10-01T10:42:03.909Z,5.85
2022-10-01T10:44:40.299Z,5.40
2022-10-01T10:47:12.084Z,6.88
2022-10-01T10:50:03.233Z,11.73
2022-10-01T10:59:20.405Z,6.32
2022-10-01T11:01:53.390Z,6.82
2022-10-01T11:05:45.461Z,7.40
2022-10-01T11:08:20.184Z,5.72
2022-10-01T11:11:24.760Z,3.90
2022-10-01T11:15:06.007Z,7.65
2022-10-01T11:18:17.657Z,9.02
2022-10-01T11:21:07.744Z,5.07
2022-10-01T11:30:12.780Z,8.52
2022-10-01T11:32:45.555Z,8.57
2022-10-01T11:35:50.995Z,10.68
2022-10-01T11:38:43.405Z,8.38
2022-10-01T11:41:25.906Z,8.43
2022-10-01T11:44:11.202Z,7.40
2022-10-01T11:46:48.816Z,6.05
2022-10-01T11:49:42.611Z,7.75
2022-10-01T11:52:27.808Z,53.75
2022-10-01T11:55:25.174Z,8.40
2022-10-01T11:58:17.713Z,7.35
2022-10-01T12:00:58.921Z,7.38
2022-10-01T12:03:35.311Z,9.02
2022-10-01T12:06:04.348Z,8.00
2022-10-01T12:08:40.647Z,7.70
2022-10-01T12:11:45.396Z,9.88
2022-10-01T12:14:19.808Z,10.68
2022-10-01T12:17:05.732Z,12.25
2022-10-01T12:22:24.350Z,14.60
2022-10-01T12:24:52.480Z,13.68
2022-10-01T12:27:56.342Z,11.57
2022-10-01T12:30:25.847Z,4.63
2022-10-01T12:33:17.205Z,12.32
2022-10-01T12:36:24.334Z,7.38
2022-10-01T12:39:40.179Z,6.63
2022-10-01T12:42:42.682Z,6.65
2022-10-01T12:45:13.104Z,8.00
2022-10-01T12:47:49.450Z,5.22
2022-10-01T12:50:40.292Z,10.88
2022-10-01T12:53:38.884Z,5.57
2022-10-01T12:56:32.251Z,6.53
2022-10-01T12:59:35.504Z,6.88
2022-10-01T13:02:43.521Z,5.72
2022-10-01T13:05:33.006Z,5.45
2022-10-01T13:08:17.624Z,5.50
2022-10-01T13:11:05.224Z,5.10
2022-10-01T13:13:33.690Z,3.78
2022-10-01T13:16:12.194Z,6.88
2022-10-01T13:18:54.519Z,7.25
2022-10-01T13:21:47.419Z,7.28
2022-10-01T13:24:35.758Z,9.45
2022-10-01T13:27:25.457Z,8.20
2022-10-01T13:30:01.132Z,8.02
2022-10-01T13:32:35.182Z,8.73
2022-10-01T13:35:32.866Z,10.27
2022-10-01T13:38:13.349Z,10.00
2022-10-01T13:40:42.718Z,10.15
2022-10-01T13:43:19.890Z,7.25
2022-10-01T13:45:51.529Z,8.00
2022-10-01T13:48:24.148Z,7.55
2022-10-01T13:51:04.277Z,5.78
2022-10-01T13:53:42.545Z,6.18
2022-10-01T13:56:15.454Z,6.43
2022-10-01T13:58:44.254Z,4.70
2022-10-01T14:01:22.936Z,7.28
2022-10-01T14:03:50.790Z,7.57
2022-10-01T14:06:43.395Z,5.20
2022-10-01T14:09:35.017Z,6.43
2022-10-01T14:12:41.591Z,6.78
2022-10-01T14:15:59.793Z,6.47
2022-10-01T14:18:41.844Z,5.90
2022-10-01T14:21:30.344Z,7.20
2022-10-01T14:24:34.383Z,9.00
2022-10-01T14:27:13.329Z,7.70
2022-10-01T14:29:52.166Z,8.27
2022-10-01T14:32:54.045Z,6.22
2022-10-01T14:35:32.621Z,10.20
2022-10-01T14:38:47.914Z,11.98
2022-10-01T14:56:37.612Z,10.48
2022-10-01T14:59:08.574Z,8.40
2022-10-01T15:01:35.404Z,8.95
2022-10-01T15:04:02.261Z,7.32
2022-10-01T15:06:30.096Z,10.13
2022-10-01T15:09:13.149Z,9.57
2022-10-01T15:11:44.671Z,11.15
2022-10-01T15:14:21.211Z,5.68
2022-10-01T15:16:55.073Z,11.77
2022-10-01T15:19:25.705Z,10.43
2022-10-01T15:21:57.984Z,5.82
2022-10-01T15:24:39.391Z,6.18
2022-10-01T15:27:07.601Z,7.70
2022-10-01T15:29:36.945Z,9.93
2022-10-01T15:32:14.340Z,7.28
2022-10-01T15:34:44.319Z,9.55
2022-10-01T15:37:33.452Z,9.60
2022-10-01T15:40:06.648Z,5.57
2022-10-01T15:42:36.286Z,8.48
2022-10-01T15:45:08.969Z,4.57
2022-10-01T15:47:40.111Z,10.13
2022-10-01T15:50:09.804Z,10.73
2022-10-01T15:52:50.862Z,10.27
2022-10-01T15:55:26.499Z,8.75
2022-10-01T15:58:03.981Z,8.00
2022-10-01T16:00:35.261Z,8.25
2022-10-01T16:03:02.959Z,7.63
2022-10-01T16:05:44.536Z,8.60
2022-10-01T16:08:22.597Z,7.78
2022-10-01T16:11:08.396Z,7.85
2022-10-01T16:16:14.214Z,6.95
2022-10-01T16:18:43.077Z,8.32
2022-10-01T16:21:11.403Z,8.77
2022-10-01T16:23:41.717Z,9.38
2022-10-01T16:26:27.421Z,10.60
2022-10-01T16:29:01.529Z,12.80
2022-10-01T16:31:30.174Z,9.50
2022-10-01T16:33:57.261Z,11.40
2022-10-01T16:36:26.349Z,10.95
2022-10-01T16:38:58.178Z,12.27
2022-10-01T16:41:30.522Z,6.80
2022-10-01T16:44:00.828Z,9.90
2022-10-01T16:46:29.111Z,10.05
2022-10-01T16:48:56.058Z,9.50
2022-10-01T16:51:25.568Z,9.88
2022-10-01T16:53:56.408Z,11.15
2022-10-01T16:56:27.325Z,10.63
2022-10-01T16:58:54.746Z,12.23
2022-10-01T17:01:26.324Z,9.52
2022-10-01T17:03:54.584Z,9.15
2022-10-01T17:06:21.791Z,9.75
2022-10-01T17:08:48.726Z,7.25
2022-10-01T17:11:17.822Z,9.20
2022-10-01T17:13:44.742Z,9.20
2022-10-01T17:16:11.762Z,10.48
2022-10-01T17:18:39.117Z,11.75
2022-10-01T17:21:07.862Z,7.25
2022-10-01T17:23:38.691Z,12.35
2022-10-01T17:26:07.015Z,9.13
2022-10-01T17:28:34.051Z,13.77
2022-10-01T17:31:06.999Z,9.98
2022-10-01T17:33:34.224Z,8.77
2022-10-01T17:36:05.526Z,12.05
2022-10-01T17:38:32.450Z,11.38
2022-10-01T17:41:02.688Z,12.27
2022-10-01T17:43:31.907Z,10.60
2022-10-01T17:46:00.652Z,10.38
2022-10-01T17:48:28.677Z,7.15
2022-10-01T17:51:05.549Z,12.40
2022-10-01T17:53:38.402Z,16.10
2022-10-01T17:56:14.789Z,9.45
2022-10-01T17:58:45.849Z,10.68
2022-10-01T18:01:19.917Z,9.35
2022-10-01T18:03:47.145Z,11.93
2022-10-01T18:06:19.949Z,7.00
2022-10-01T18:09:01.718Z,9.20
2022-10-01T18:11:29.391Z,17.30
2022-10-01T18:13:56.507Z,15.43
2022-10-01T18:16:23.993Z,10.60
2022-10-01T18:21:49.066Z,13.13
2022-10-01T18:24:16.867Z,12.52
2022-10-01T18:26:45.621Z,11.20
2022-10-01T18:29:24.981Z,10.05
2022-10-01T18:32:18.194Z,13.73
2022-10-01T18:34:59.155Z,15.25
2022-10-01T18:37:40.328Z,12.98
2022-10-01T18:40:19.149Z,14.02
2022-10-01T18:43:05.622Z,12.38
2022-10-01T18:45:56.345Z,9.60
2022-10-01T18:52:08.491Z,10.40
2022-10-01T18:54:59.375Z,14.30
2022-10-01T18:57:35.113Z,9.48
2022-10-01T19:00:10.793Z,10.63
2022-10-01T19:03:02.266Z,14.57
2022-10-01T19:05:41.449Z,11.60
2022-10-01T19:08:49.691Z,10.23
2022-10-01T19:11:39.241Z,9.70
2022-10-01T19:17:11.703Z,11.50
2022-10-01T19:19:59.693Z,12.15
2022-10-01T19:22:48.252Z,15.27
2022-10-01T19:25:30.174Z,17.25
2022-10-01T19:28:02.724Z,15.68
2022-10-01T19:30:40.766Z,12.77
2022-10-01T19:36:03.124Z,12.57
2022-10-01T19:38:38.200Z,11.90
2022-10-01T19:41:19.036Z,10.20
2022-10-01T19:44:04.424Z,11.73
2022-10-01T19:46:45.585Z,13.80
2022-10-01T19:49:22.879Z,15.95
2022-10-01T19:51:59.879Z,13.75
2022-10-01T19:54:38.262Z,13.50
2022-10-01T19:57:27.906Z,10.45
2022-10-01T20:00:07.207Z,15.13
2022-10-01T20:02:46.020Z,14.35
2022-10-01T20:05:32.471Z,20.10
2022-10-01T20:08:25.036Z,19.52
2022-10-01T20:10:55.752Z,20.10
2022-10-01T20:13:39.844Z,26.15
2022-10-01T20:16:31.373Z,21.05
2022-10-01T20:19:31.272Z,21.60
2022-10-01T20:22:35.623Z,22.17
2022-10-01T20:25:11.825Z,16.33
2022-10-01T20:27:56.997Z,17.60
2022-10-01T20:30:24.348Z,21.33
2022-10-01T20:33:02.873Z,19.20
2022-10-01T20:35:42.203Z,20.30
2022-10-01T20:38:15.108Z,17.38
2022-10-01T20:40:53.228Z,20.05
2022-10-01T20:43:29.082Z,18.73
2022-10-01T20:45:57.164Z,16.02
2022-10-01T20:48:36.340Z,20.38
2022-10-01T20:51:12.543Z,18.73
2022-10-01T20:53:49.433Z,19.23
2022-10-01T20:56:19.397Z,14.05
2022-10-01T20:59:26.948Z,15.95
2022-10-01T21:02:02.798Z,11.70
2022-10-01T21:04:34.196Z,21.35
2022-10-01T21:07:17.975Z,13.70
2022-10-01T21:09:48.484Z,14.68
2022-10-01T21:12:31.595Z,15.55
2022-10-01T21:15:01.427Z,12.38
2022-10-01T21:18:04.551Z,17.17
2022-10-01T21:20:50.693Z,14.52
2022-10-01T21:23:46.195Z,15.88
2022-10-01T21:26:35.852Z,15.32
2022-10-01T21:29:22.053Z,11.00
2022-10-01T21:35:23.137Z,7.25
2022-10-01T21:38:11.150Z,13.27
2022-10-01T21:40:37.923Z,11.27
2022-10-01T21:43:23.269Z,17.27
2022-10-01T21:46:19.466Z,10.27
2022-10-01T21:49:11.635Z,14.43
2022-10-01T21:51:55.302Z,8.13
2022-10-01T21:54:30.888Z,12.50
2022-10-01T21:59:43.127Z,12.48
2022-10-01T22:02:35.647Z,11.57
2022-10-01T22:05:32.702Z,13.93
2022-10-01T22:08:24.383Z,7.95
2022-10-01T22:10:56.387Z,11.43
2022-10-01T22:13:31.602Z,7.63
2022-10-01T22:16:02.915Z,10.13
2022-10-01T22:19:29.704Z,9.30
2022-10-01T22:22:46.544Z,10.63
2022-10-01T22:25:23.337Z,15.70
2022-10-01T22:28:19.625Z,12.00
2022-10-01T22:30:58.731Z,11.40
2022-10-01T22:47:33.548Z,14.55
2022-10-01T22:50:51.333Z,9.68
2022-10-01T22:53:46.725Z,11.95
2022-10-01T22:56:21.386Z,10.07
2022-10-01T23:05:49.667Z,14.23
2022-10-01T23:08:49.361Z,11.15
2022-10-01T23:11:28.793Z,14.55
2022-10-01T23:14:32.901Z,16.70
2022-10-01T23:17:33.724Z,13.35
2022-10-01T23:20:52.321Z,18.77
2022-10-01T23:23:39.361Z,17.55
2022-10-01T23:27:47.509Z,14.15
2022-10-01T23:30:21.519Z,18.17
2022-10-01T23:33:22.798Z,18.10
2022-10-01T23:36:26.644Z,21.77
2022-10-01T23:39:22.010Z,17.35
2022-10-01T23:42:15.305Z,18.33
2022-10-01T23:45:03.961Z,20.50
2022-10-01T23:48:34.696Z,17.98
2022-10-01T23:52:19.885Z,14.13
